sensor_id;sensor_type;location;lat;lon;timestamp;P1;durP1;ratioP1;P2;durP2;ratioP2
5416;SDS011;2731;50.754;12.990;2022-09-14T00:01:12;5.60;;;3.55;;
5416;SDS011;2731;50.754;12.990;2022-09-14T00:03:40;2.70;;;2.50;;
5416;SDS011;2731;50.754;12.990;2022-09-14T00:06:11;2.88;;;2.53;;
5416;SDS011;2731;50.754;12.990;2022-09-14T00:08:38;3.05;;;2.30;;
5416;SDS011;2731;50.754;12.990;2022-09-14T00:11:08;5.55;;;3.00;;
5416;SDS011;2731;50.754;12.990;2022-09-14T00:13:38;3.55;;;2.83;;
5416;SDS011;2731;50.754;12.990;2022-09-14T00:16:07;4.47;;;3.28;;
5416;SDS011;2731;50.754;12.990;2022-09-14T00:18:41;3.75;;;3.10;;
5416;SDS011;2731;50.754;12.990;2022-09-14T00:21:11;3.15;;;2.85;;
5416;SDS011;2731;50.754;12.990;2022-09-14T00:23:38;3.97;;;3.00;;
5416;SDS011;2731;50.754;12.990;2022-09-14T00:26:09;4.15;;;2.67;;
5416;SDS011;2731;50.754;12.990;2022-09-14T00:28:41;2.95;;;2.58;;
5416;SDS011;2731;50.754;12.990;2022-09-14T00:31:24;3.45;;;3.05;;
5416;SDS011;2731;50.754;12.990;2022-09-14T00:33:51;3.20;;;2.80;;
5416;SDS011;2731;50.754;12.990;2022-09-14T00:36:20;3.17;;;2.80;;
5416;SDS011;2731;50.754;12.990;2022-09-14T00:38:48;4.40;;;3.15;;
5416;SDS011;2731;50.754;12.990;2022-09-14T00:41:17;3.30;;;2.88;;
5416;SDS011;2731;50.754;12.990;2022-09-14T00:43:58;3.22;;;2.80;;
5416;SDS011;2731;50.754;12.990;2022-09-14T00:46:34;3.35;;;2.95;;
5416;SDS011;2731;50.754;12.990;2022-09-14T00:49:09;3.03;;;2.72;;
5416;SDS011;2731;50.754;12.990;2022-09-14T00:51:53;3.25;;;2.95;;
5416;SDS011;2731;50.754;12.990;2022-09-14T00:54:24;4.88;;;2.97;;
5416;SDS011;2731;50.754;12.990;2022-09-14T00:56:55;4.13;;;2.95;;
5416;SDS011;2731;50.754;12.990;2022-09-14T00:59:24;5.88;;;3.33;;
5416;SDS011;2731;50.754;12.990;2022-09-14T01:01:51;5.57;;;3.42;;
5416;SDS011;2731;50.754;12.990;2022-09-14T01:04:18;4.93;;;2.78;;
5416;SDS011;2731;50.754;12.990;2022-09-14T01:06:50;3.85;;;3.00;;
5416;SDS011;2731;50.754;12.990;2022-09-14T01:17:31;2.85;;;2.30;;
5416;SDS011;2731;50.754;12.990;2022-09-14T01:23:23;4.78;;;2.85;;
5416;SDS011;2731;50.754;12.990;2022-09-14T01:34:46;4.18;;;3.55;;
5416;SDS011;2731;50.754;12.990;2022-09-14T01:37:35;4.80;;;3.47;;
5416;SDS011;2731;50.754;12.990;2022-09-14T01:40:16;5.85;;;3.53;;
5416;SDS011;2731;50.754;12.990;2022-09-14T01:42:57;6.13;;;3.45;;
5416;SDS011;2731;50.754;12.990;2022-09-14T01:45:26;5.57;;;3.38;;
5416;SDS011;2731;50.754;12.990;2022-09-14T01:48:01;4.13;;;3.30;;
5416;SDS011;2731;50.754;12.990;2022-09-14T01:50:51;3.47;;;3.17;;
5416;SDS011;2731;50.754;12.990;2022-09-14T01:56:22;3.83;;;3.38;;
5416;SDS011;2731;50.754;12.990;2022-09-14T02:01:59;3.63;;;3.17;;
5416;SDS011;2731;50.754;12.990;2022-09-14T02:08:05;3.70;;;3.13;;
5416;SDS011;2731;50.754;12.990;2022-09-14T02:10:33;4.20;;;3.47;;
5416;SDS011;2731;50.754;12.990;2022-09-14T02:12:59;4.13;;;3.10;;
5416;SDS011;2731;50.754;12.990;2022-09-14T02:15:25;4.35;;;3.67;;
5416;SDS011;2731;50.754;12.990;2022-09-14T02:17:51;4.25;;;3.42;;
5416;SDS011;2731;50.754;12.990;2022-09-14T02:20:25;4.00;;;3.45;;
5416;SDS011;2731;50.754;12.990;2022-09-14T02:23:01;5.45;;;3.83;;
5416;SDS011;2731;50.754;12.990;2022-09-14T02:25:27;4.03;;;3.63;;
5416;SDS011;2731;50.754;12.990;2022-09-14T02:27:53;3.78;;;3.25;;
5416;SDS011;2731;50.754;12.990;2022-09-14T02:30:19;4.28;;;3.35;;
5416;SDS011;2731;50.754;12.990;2022-09-14T02:36:03;5.35;;;3.33;;
5416;SDS011;2731;50.754;12.990;2022-09-14T02:38:45;3.97;;;3.33;;
5416;SDS011;2731;50.754;12.990;2022-09-14T02:44:47;3.42;;;2.83;;
5416;SDS011;2731;50.754;12.990;2022-09-14T02:47:37;4.38;;;3.30;;
5416;SDS011;2731;50.754;12.990;2022-09-14T02:50:26;3.15;;;2.78;;
5416;SDS011;2731;50.754;12.990;2022-09-14T02:53:29;4.18;;;3.15;;
5416;SDS011;2731;50.754;12.990;2022-09-14T02:56:34;3.43;;;2.83;;
5416;SDS011;2731;50.754;12.990;2022-09-14T02:59:00;4.75;;;3.50;;
5416;SDS011;2731;50.754;12.990;2022-09-14T03:01:26;3.65;;;3.10;;
5416;SDS011;2731;50.754;12.990;2022-09-14T03:03:55;4.60;;;3.45;;
5416;SDS011;2731;50.754;12.990;2022-09-14T03:06:21;3.38;;;2.95;;
5416;SDS011;2731;50.754;12.990;2022-09-14T03:08:47;3.80;;;2.75;;
5416;SDS011;2731;50.754;12.990;2022-09-14T03:11:26;4.15;;;3.13;;
5416;SDS011;2731;50.754;12.990;2022-09-14T03:13:52;3.80;;;3.03;;
5416;SDS011;2731;50.754;12.990;2022-09-14T03:16:20;3.40;;;2.78;;
5416;SDS011;2731;50.754;12.990;2022-09-14T03:18:47;4.13;;;3.33;;
5416;SDS011;2731;50.754;12.990;2022-09-14T03:21:15;4.53;;;3.10;;
5416;SDS011;2731;50.754;12.990;2022-09-14T03:23:45;2.97;;;2.55;;
5416;SDS011;2731;50.754;12.990;2022-09-14T03:26:18;4.63;;;3.50;;
5416;SDS011;2731;50.754;12.990;2022-09-14T03:28:53;4.82;;;3.55;;
5416;SDS011;2731;50.754;12.990;2022-09-14T03:31:30;7.32;;;5.53;;
5416;SDS011;2731;50.754;12.990;2022-09-14T03:33:58;9.23;;;6.50;;
5416;SDS011;2731;50.754;12.990;2022-09-14T03:36:27;13.68;;;9.25;;
5416;SDS011;2731;50.754;12.990;2022-09-14T03:38:54;12.00;;;8.07;;
5416;SDS011;2731;50.754;12.990;2022-09-14T03:41:24;14.05;;;9.68;;
5416;SDS011;2731;50.754;12.990;2022-09-14T03:43:49;17.23;;;11.68;;
5416;SDS011;2731;50.754;12.990;2022-09-14T03:46:19;16.45;;;11.57;;
5416;SDS011;2731;50.754;12.990;2022-09-14T03:48:46;15.82;;;10.55;;
5416;SDS011;2731;50.754;12.990;2022-09-14T03:51:14;13.25;;;8.85;;
5416;SDS011;2731;50.754;12.990;2022-09-14T03:53:41;10.68;;;7.72;;
5416;SDS011;2731;50.754;12.990;2022-09-14T03:56:10;10.73;;;7.63;;
5416;SDS011;2731;50.754;12.990;2022-09-14T03:58:38;14.02;;;7.88;;
5416;SDS011;2731;50.754;12.990;2022-09-14T04:01:08;11.02;;;7.57;;
5416;SDS011;2731;50.754;12.990;2022-09-14T04:03:36;13.80;;;9.30;;
5416;SDS011;2731;50.754;12.990;2022-09-14T04:06:03;16.58;;;10.80;;
5416;SDS011;2731;50.754;12.990;2022-09-14T04:08:50;11.93;;;8.48;;
5416;SDS011;2731;50.754;12.990;2022-09-14T04:11:16;10.35;;;8.00;;
5416;SDS011;2731;50.754;12.990;2022-09-14T04:13:43;10.18;;;6.50;;
5416;SDS011;2731;50.754;12.990;2022-09-14T04:16:10;12.73;;;7.45;;
5416;SDS011;2731;50.754;12.990;2022-09-14T04:18:37;10.27;;;7.88;;
5416;SDS011;2731;50.754;12.990;2022-09-14T04:21:06;10.45;;;7.53;;
5416;SDS011;2731;50.754;12.990;2022-09-14T04:23:35;10.13;;;7.20;;
5416;SDS011;2731;50.754;12.990;2022-09-14T04:26:08;9.07;;;6.65;;
5416;SDS011;2731;50.754;12.990;2022-09-14T04:28:38;7.88;;;6.22;;
5416;SDS011;2731;50.754;12.990;2022-09-14T04:31:05;7.18;;;5.53;;
5416;SDS011;2731;50.754;12.990;2022-09-14T04:33:33;7.75;;;5.53;;
5416;SDS011;2731;50.754;12.990;2022-09-14T04:36:01;6.05;;;4.45;;
5416;SDS011;2731;50.754;12.990;2022-09-14T04:38:32;8.40;;;5.30;;
5416;SDS011;2731;50.754;12.990;2022-09-14T04:40:58;5.78;;;4.70;;
5416;SDS011;2731;50.754;12.990;2022-09-14T04:43:28;4.32;;;3.63;;
5416;SDS011;2731;50.754;12.990;2022-09-14T04:46:04;5.97;;;4.70;;
5416;SDS011;2731;50.754;12.990;2022-09-14T04:48:33;4.75;;;4.10;;
5416;SDS011;2731;50.754;12.990;2022-09-14T04:51:07;6.60;;;4.22;;
5416;SDS011;2731;50.754;12.990;2022-09-14T04:53:38;4.78;;;3.90;;
5416;SDS011;2731;50.754;12.990;2022-09-14T04:56:08;6.38;;;4.40;;
5416;SDS011;2731;50.754;12.990;2022-09-14T04:58:38;5.45;;;4.47;;
5416;SDS011;2731;50.754;12.990;2022-09-14T05:01:20;6.35;;;3.92;;
5416;SDS011;2731;50.754;12.990;2022-09-14T05:03:47;4.75;;;3.50;;
5416;SDS011;2731;50.754;12.990;2022-09-14T05:06:21;5.22;;;3.45;;
5416;SDS011;2731;50.754;12.990;2022-09-14T05:08:54;4.82;;;3.70;;
5416;SDS011;2731;50.754;12.990;2022-09-14T05:11:21;4.75;;;3.97;;
5416;SDS011;2731;50.754;12.990;2022-09-14T05:13:49;5.13;;;4.25;;
5416;SDS011;2731;50.754;12.990;2022-09-14T05:16:16;4.80;;;3.95;;
5416;SDS011;2731;50.754;12.990;2022-09-14T05:18:45;5.90;;;4.00;;
5416;SDS011;2731;50.754;12.990;2022-09-14T05:21:13;4.75;;;3.25;;
5416;SDS011;2731;50.754;12.990;2022-09-14T05:23:40;4.38;;;3.72;;
5416;SDS011;2731;50.754;12.990;2022-09-14T05:26:07;3.78;;;3.28;;
5416;SDS011;2731;50.754;12.990;2022-09-14T05:28:39;3.90;;;3.22;;
5416;SDS011;2731;50.754;12.990;2022-09-14T05:31:06;4.20;;;3.28;;
5416;SDS011;2731;50.754;12.990;2022-09-14T05:33:35;4.10;;;3.42;;
5416;SDS011;2731;50.754;12.990;2022-09-14T05:36:03;4.85;;;3.90;;
5416;SDS011;2731;50.754;12.990;2022-09-14T05:38:32;5.20;;;3.38;;
5416;SDS011;2731;50.754;12.990;2022-09-14T05:41:12;5.40;;;3.75;;
5416;SDS011;2731;50.754;12.990;2022-09-14T05:43:38;4.63;;;4.05;;
5416;SDS011;2731;50.754;12.990;2022-09-14T05:46:07;4.72;;;3.88;;
5416;SDS011;2731;50.754;12.990;2022-09-14T05:48:36;6.75;;;3.75;;
5416;SDS011;2731;50.754;12.990;2022-09-14T05:51:04;5.90;;;3.83;;
5416;SDS011;2731;50.754;12.990;2022-09-14T05:53:40;5.28;;;4.43;;
5416;SDS011;2731;50.754;12.990;2022-09-14T05:56:11;4.53;;;3.80;;
5416;SDS011;2731;50.754;12.990;2022-09-14T05:58:38;5.22;;;4.45;;
5416;SDS011;2731;50.754;12.990;2022-09-14T06:01:10;4.20;;;3.58;;
5416;SDS011;2731;50.754;12.990;2022-09-14T06:03:42;4.35;;;3.53;;
5416;SDS011;2731;50.754;12.990;2022-09-14T06:06:10;7.13;;;4.78;;
5416;SDS011;2731;50.754;12.990;2022-09-14T06:08:38;6.38;;;4.15;;
5416;SDS011;2731;50.754;12.990;2022-09-14T06:11:07;4.32;;;3.63;;
5416;SDS011;2731;50.754;12.990;2022-09-14T06:13:35;3.95;;;3.55;;
5416;SDS011;2731;50.754;12.990;2022-09-14T06:16:06;4.97;;;4.25;;
5416;SDS011;2731;50.754;12.990;2022-09-14T06:18:33;4.78;;;4.10;;
5416;SDS011;2731;50.754;12.990;2022-09-14T06:21:00;4.90;;;3.90;;
5416;SDS011;2731;50.754;12.990;2022-09-14T06:23:28;5.63;;;4.50;;
5416;SDS011;2731;50.754;12.990;2022-09-14T06:25:55;6.78;;;5.18;;
5416;SDS011;2731;50.754;12.990;2022-09-14T06:28:22;8.88;;;6.18;;
5416;SDS011;2731;50.754;12.990;2022-09-14T06:30:51;7.10;;;6.38;;
5416;SDS011;2731;50.754;12.990;2022-09-14T06:33:17;9.38;;;6.07;;
5416;SDS011;2731;50.754;12.990;2022-09-14T06:35:52;6.40;;;5.25;;
5416;SDS011;2731;50.754;12.990;2022-09-14T06:38:24;5.88;;;4.65;;
5416;SDS011;2731;50.754;12.990;2022-09-14T06:40:53;5.55;;;4.85;;
5416;SDS011;2731;50.754;12.990;2022-09-14T06:43:20;7.75;;;5.35;;
5416;SDS011;2731;50.754;12.990;2022-09-14T06:46:02;5.43;;;4.93;;
5416;SDS011;2731;50.754;12.990;2022-09-14T06:48:32;5.88;;;4.75;;
5416;SDS011;2731;50.754;12.990;2022-09-14T06:51:10;5.88;;;4.85;;
5416;SDS011;2731;50.754;12.990;2022-09-14T06:53:49;7.15;;;4.50;;
5416;SDS011;2731;50.754;12.990;2022-09-14T06:56:17;5.50;;;4.75;;
5416;SDS011;2731;50.754;12.990;2022-09-14T06:58:44;5.82;;;4.07;;
5416;SDS011;2731;50.754;12.990;2022-09-14T07:01:12;6.15;;;4.40;;
5416;SDS011;2731;50.754;12.990;2022-09-14T07:03:39;5.50;;;4.78;;
5416;SDS011;2731;50.754;12.990;2022-09-14T07:06:15;7.47;;;5.30;;
5416;SDS011;2731;50.754;12.990;2022-09-14T07:08:47;4.80;;;4.30;;
5416;SDS011;2731;50.754;12.990;2022-09-14T07:11:15;4.35;;;3.95;;
5416;SDS011;2731;50.754;12.990;2022-09-14T07:13:42;5.60;;;4.90;;
5416;SDS011;2731;50.754;12.990;2022-09-14T07:16:08;5.10;;;4.30;;
5416;SDS011;2731;50.754;12.990;2022-09-14T07:18:33;4.75;;;4.30;;
5416;SDS011;2731;50.754;12.990;2022-09-14T07:21:01;4.97;;;4.47;;
5416;SDS011;2731;50.754;12.990;2022-09-14T07:23:45;6.57;;;5.38;;
5416;SDS011;2731;50.754;12.990;2022-09-14T07:26:16;5.85;;;5.10;;
5416;SDS011;2731;50.754;12.990;2022-09-14T07:28:44;5.00;;;4.28;;
5416;SDS011;2731;50.754;12.990;2022-09-14T07:31:32;5.50;;;4.20;;
5416;SDS011;2731;50.754;12.990;2022-09-14T07:34:01;4.95;;;4.30;;
5416;SDS011;2731;50.754;12.990;2022-09-14T07:36:29;5.80;;;4.45;;
5416;SDS011;2731;50.754;12.990;2022-09-14T07:38:57;6.88;;;4.97;;
5416;SDS011;2731;50.754;12.990;2022-09-14T07:41:23;6.78;;;4.75;;
5416;SDS011;2731;50.754;12.990;2022-09-14T07:43:58;6.07;;;4.18;;
5416;SDS011;2731;50.754;12.990;2022-09-14T07:46:30;5.13;;;4.05;;
5416;SDS011;2731;50.754;12.990;2022-09-14T07:49:01;5.53;;;4.93;;
5416;SDS011;2731;50.754;12.990;2022-09-14T07:51:31;7.88;;;4.82;;
5416;SDS011;2731;50.754;12.990;2022-09-14T07:54:09;5.65;;;4.97;;
5416;SDS011;2731;50.754;12.990;2022-09-14T07:56:38;6.85;;;4.72;;
5416;SDS011;2731;50.754;12.990;2022-09-14T07:59:03;6.22;;;4.55;;
5416;SDS011;2731;50.754;12.990;2022-09-14T08:01:32;6.97;;;4.75;;
5416;SDS011;2731;50.754;12.990;2022-09-14T08:04:00;4.22;;;3.83;;
5416;SDS011;2731;50.754;12.990;2022-09-14T08:06:27;6.10;;;4.90;;
5416;SDS011;2731;50.754;12.990;2022-09-14T08:08:53;5.45;;;4.45;;
5416;SDS011;2731;50.754;12.990;2022-09-14T08:11:26;5.53;;;4.28;;
5416;SDS011;2731;50.754;12.990;2022-09-14T08:13:57;5.65;;;4.32;;
5416;SDS011;2731;50.754;12.990;2022-09-14T08:16:25;4.53;;;4.13;;
5416;SDS011;2731;50.754;12.990;2022-09-14T08:18:55;6.07;;;4.75;;
5416;SDS011;2731;50.754;12.990;2022-09-14T08:21:35;7.70;;;4.95;;
5416;SDS011;2731;50.754;12.990;2022-09-14T08:24:02;6.63;;;4.82;;
5416;SDS011;2731;50.754;12.990;2022-09-14T08:26:32;4.47;;;4.03;;
5416;SDS011;2731;50.754;12.990;2022-09-14T08:29:00;5.25;;;4.72;;
5416;SDS011;2731;50.754;12.990;2022-09-14T08:31:30;6.47;;;4.93;;
5416;SDS011;2731;50.754;12.990;2022-09-14T08:33:59;6.60;;;4.57;;
5416;SDS011;2731;50.754;12.990;2022-09-14T08:36:29;5.03;;;4.20;;
5416;SDS011;2731;50.754;12.990;2022-09-14T08:39:02;5.45;;;4.30;;
5416;SDS011;2731;50.754;12.990;2022-09-14T08:47:11;4.80;;;4.30;;
5416;SDS011;2731;50.754;12.990;2022-09-14T08:50:15;5.28;;;4.15;;
5416;SDS011;2731;50.754;12.990;2022-09-14T08:52:43;5.00;;;4.00;;
5416;SDS011;2731;50.754;12.990;2022-09-14T08:58:39;6.22;;;5.05;;
5416;SDS011;2731;50.754;12.990;2022-09-14T09:07:21;4.60;;;4.00;;
5416;SDS011;2731;50.754;12.990;2022-09-14T09:10:07;5.03;;;4.47;;
5416;SDS011;2731;50.754;12.990;2022-09-14T09:12:37;6.47;;;4.38;;
5416;SDS011;2731;50.754;12.990;2022-09-14T09:21:06;5.40;;;4.03;;
5416;SDS011;2731;50.754;12.990;2022-09-14T09:23:46;5.78;;;3.85;;
5416;SDS011;2731;50.754;12.990;2022-09-14T09:28:48;3.85;;;3.25;;
5416;SDS011;2731;50.754;12.990;2022-09-14T09:31:17;4.72;;;3.67;;
5416;SDS011;2731;50.754;12.990;2022-09-14T09:33:47;3.72;;;3.15;;
5416;SDS011;2731;50.754;12.990;2022-09-14T09:36:14;3.88;;;3.38;;
5416;SDS011;2731;50.754;12.990;2022-09-14T09:38:41;3.00;;;2.70;;
5416;SDS011;2731;50.754;12.990;2022-09-14T09:41:25;2.67;;;2.42;;
5416;SDS011;2731;50.754;12.990;2022-09-14T09:49:19;2.53;;;2.03;;
5416;SDS011;2731;50.754;12.990;2022-09-14T09:52:24;2.15;;;1.85;;
5416;SDS011;2731;50.754;12.990;2022-09-14T09:54:51;2.40;;;1.95;;
5416;SDS011;2731;50.754;12.990;2022-09-14T09:57:21;1.50;;;1.40;;
5416;SDS011;2731;50.754;12.990;2022-09-14T10:00:06;2.15;;;1.73;;
5416;SDS011;2731;50.754;12.990;2022-09-14T10:02:46;2.45;;;1.70;;
5416;SDS011;2731;50.754;12.990;2022-09-14T10:07:55;2.17;;;1.98;;
5416;SDS011;2731;50.754;12.990;2022-09-14T10:10:40;2.20;;;2.00;;
5416;SDS011;2731;50.754;12.990;2022-09-14T10:13:21;2.55;;;2.35;;
5416;SDS011;2731;50.754;12.990;2022-09-14T10:16:06;3.85;;;2.63;;
5416;SDS011;2731;50.754;12.990;2022-09-14T10:18:44;1.58;;;1.40;;
5416;SDS011;2731;50.754;12.990;2022-09-14T10:21:12;1.83;;;1.60;;
5416;SDS011;2731;50.754;12.990;2022-09-14T10:28:41;1.55;;;1.45;;
5416;SDS011;2731;50.754;12.990;2022-09-14T10:31:24;1.98;;;1.75;;
5416;SDS011;2731;50.754;12.990;2022-09-14T10:36:28;2.25;;;1.90;;
5416;SDS011;2731;50.754;12.990;2022-09-14T10:39:14;1.85;;;1.70;;
5416;SDS011;2731;50.754;12.990;2022-09-14T11:01:44;2.20;;;1.63;;
5416;SDS011;2731;50.754;12.990;2022-09-14T11:07:19;1.95;;;1.75;;
5416;SDS011;2731;50.754;12.990;2022-09-14T11:15:55;2.42;;;2.00;;
5416;SDS011;2731;50.754;12.990;2022-09-14T11:18:36;2.30;;;2.03;;
5416;SDS011;2731;50.754;12.990;2022-09-14T11:24:24;2.35;;;1.60;;
5416;SDS011;2731;50.754;12.990;2022-09-14T11:27:14;1.60;;;1.50;;
5416;SDS011;2731;50.754;12.990;2022-09-14T11:30:02;2.17;;;1.58;;
5416;SDS011;2731;50.754;12.990;2022-09-14T11:32:33;1.40;;;1.30;;
5416;SDS011;2731;50.754;12.990;2022-09-14T11:37:52;1.70;;;1.60;;
5416;SDS011;2731;50.754;12.990;2022-09-14T11:40:28;1.88;;;1.63;;
5416;SDS011;2731;50.754;12.990;2022-09-14T11:43:11;1.75;;;1.65;;
5416;SDS011;2731;50.754;12.990;2022-09-14T11:45:41;1.50;;;1.40;;
5416;SDS011;2731;50.754;12.990;2022-09-14T11:48:14;1.88;;;1.48;;
5416;SDS011;2731;50.754;12.990;2022-09-14T11:50:45;1.80;;;1.65;;
5416;SDS011;2731;50.754;12.990;2022-09-14T11:53:40;1.80;;;1.70;;
5416;SDS011;2731;50.754;12.990;2022-09-14T11:56:29;2.70;;;1.67;;
5416;SDS011;2731;50.754;12.990;2022-09-14T11:59:03;1.98;;;1.77;;
5416;SDS011;2731;50.754;12.990;2022-09-14T12:01:40;2.53;;;1.77;;
5416;SDS011;2731;50.754;12.990;2022-09-14T12:04:06;1.80;;;1.70;;
5416;SDS011;2731;50.754;12.990;2022-09-14T12:11:49;1.65;;;1.50;;
5416;SDS011;2731;50.754;12.990;2022-09-14T12:17:04;2.85;;;1.95;;
5416;SDS011;2731;50.754;12.990;2022-09-14T12:19:45;1.85;;;1.55;;
5416;SDS011;2731;50.754;12.990;2022-09-14T12:22:19;4.25;;;1.80;;
5416;SDS011;2731;50.754;12.990;2022-09-14T12:25:01;1.98;;;1.75;;
5416;SDS011;2731;50.754;12.990;2022-09-14T12:27:38;1.73;;;1.42;;
5416;SDS011;2731;50.754;12.990;2022-09-14T12:41:56;2.10;;;1.73;;
5416;SDS011;2731;50.754;12.990;2022-09-14T12:44:38;2.85;;;2.13;;
5416;SDS011;2731;50.754;12.990;2022-09-14T12:49:56;3.17;;;2.35;;
5416;SDS011;2731;50.754;12.990;2022-09-14T12:55:34;3.72;;;2.30;;
5416;SDS011;2731;50.754;12.990;2022-09-14T12:58:20;2.60;;;2.40;;
5416;SDS011;2731;50.754;12.990;2022-09-14T13:04:23;3.90;;;2.75;;
5416;SDS011;2731;50.754;12.990;2022-09-14T13:06:51;3.00;;;2.20;;
5416;SDS011;2731;50.754;12.990;2022-09-14T13:09:19;2.55;;;2.30;;
5416;SDS011;2731;50.754;12.990;2022-09-14T13:11:47;2.60;;;2.28;;
5416;SDS011;2731;50.754;12.990;2022-09-14T13:14:17;3.40;;;2.47;;
5416;SDS011;2731;50.754;12.990;2022-09-14T13:16:45;3.28;;;2.95;;
5416;SDS011;2731;50.754;12.990;2022-09-14T13:22:00;2.88;;;2.00;;
5416;SDS011;2731;50.754;12.990;2022-09-14T13:24:28;2.88;;;2.58;;
5416;SDS011;2731;50.754;12.990;2022-09-14T13:27:14;2.88;;;2.25;;
5416;SDS011;2731;50.754;12.990;2022-09-14T13:30:01;2.50;;;2.20;;
5416;SDS011;2731;50.754;12.990;2022-09-14T13:32:30;2.60;;;2.20;;
5416;SDS011;2731;50.754;12.990;2022-09-14T13:34:58;2.70;;;2.28;;
5416;SDS011;2731;50.754;12.990;2022-09-14T13:37:23;2.58;;;2.20;;
5416;SDS011;2731;50.754;12.990;2022-09-14T13:39:51;2.45;;;2.05;;
5416;SDS011;2731;50.754;12.990;2022-09-14T13:42:18;2.30;;;2.10;;
5416;SDS011;2731;50.754;12.990;2022-09-14T13:44:45;1.98;;;1.75;;
5416;SDS011;2731;50.754;12.990;2022-09-14T13:47:14;2.22;;;2.03;;
5416;SDS011;2731;50.754;12.990;2022-09-14T13:49:51;2.15;;;1.83;;
5416;SDS011;2731;50.754;12.990;2022-09-14T13:52:25;2.50;;;2.03;;
5416;SDS011;2731;50.754;12.990;2022-09-14T14:01:01;4.03;;;2.17;;
5416;SDS011;2731;50.754;12.990;2022-09-14T14:08:52;2.05;;;1.85;;
5416;SDS011;2731;50.754;12.990;2022-09-14T14:11:26;1.83;;;1.65;;
5416;SDS011;2731;50.754;12.990;2022-09-14T14:14:18;4.45;;;1.80;;
5416;SDS011;2731;50.754;12.990;2022-09-14T14:19:46;2.90;;;2.35;;
5416;SDS011;2731;50.754;12.990;2022-09-14T14:25:01;2.33;;;1.98;;
5416;SDS011;2731;50.754;12.990;2022-09-14T14:27:44;2.45;;;2.25;;
5416;SDS011;2731;50.754;12.990;2022-09-14T14:30:16;2.47;;;2.10;;
5416;SDS011;2731;50.754;12.990;2022-09-14T14:32:48;2.95;;;1.92;;
5416;SDS011;2731;50.754;12.990;2022-09-14T14:35:19;2.45;;;2.08;;
5416;SDS011;2731;50.754;12.990;2022-09-14T14:37:46;2.50;;;1.70;;
5416;SDS011;2731;50.754;12.990;2022-09-14T14:40:15;2.38;;;2.17;;
5416;SDS011;2731;50.754;12.990;2022-09-14T14:42:41;2.67;;;2.45;;
5416;SDS011;2731;50.754;12.990;2022-09-14T14:45:23;3.20;;;2.90;;
5416;SDS011;2731;50.754;12.990;2022-09-14T14:47:52;2.67;;;2.47;;
5416;SDS011;2731;50.754;12.990;2022-09-14T14:50:21;2.40;;;2.20;;
5416;SDS011;2731;50.754;12.990;2022-09-14T14:52:57;2.28;;;2.08;;
5416;SDS011;2731;50.754;12.990;2022-09-14T14:55:43;2.95;;;2.55;;
5416;SDS011;2731;50.754;12.990;2022-09-14T14:58:18;3.85;;;3.33;;
5416;SDS011;2731;50.754;12.990;2022-09-14T15:01:03;2.95;;;2.45;;
5416;SDS011;2731;50.754;12.990;2022-09-14T15:03:31;3.00;;;2.70;;
5416;SDS011;2731;50.754;12.990;2022-09-14T15:05:59;3.78;;;3.22;;
5416;SDS011;2731;50.754;12.990;2022-09-14T15:08:36;2.88;;;2.58;;
5416;SDS011;2731;50.754;12.990;2022-09-14T15:11:04;5.47;;;2.60;;
5416;SDS011;2731;50.754;12.990;2022-09-14T15:13:34;3.20;;;2.90;;
5416;SDS011;2731;50.754;12.990;2022-09-14T15:16:02;2.92;;;2.63;;
5416;SDS011;2731;50.754;12.990;2022-09-14T15:18:28;3.40;;;3.10;;
5416;SDS011;2731;50.754;12.990;2022-09-14T15:20:55;3.92;;;3.08;;
5416;SDS011;2731;50.754;12.990;2022-09-14T15:23:22;3.42;;;2.75;;
5416;SDS011;2731;50.754;12.990;2022-09-14T15:25:53;2.75;;;2.33;;
5416;SDS011;2731;50.754;12.990;2022-09-14T15:28:20;2.03;;;1.83;;
5416;SDS011;2731;50.754;12.990;2022-09-14T15:30:48;2.08;;;1.95;;
5416;SDS011;2731;50.754;12.990;2022-09-14T15:33:16;3.33;;;2.53;;
5416;SDS011;2731;50.754;12.990;2022-09-14T15:35:44;2.95;;;2.35;;
5416;SDS011;2731;50.754;12.990;2022-09-14T15:38:12;2.40;;;1.92;;
5416;SDS011;2731;50.754;12.990;2022-09-14T15:40:38;2.45;;;1.90;;
5416;SDS011;2731;50.754;12.990;2022-09-14T15:43:05;2.67;;;2.13;;
5416;SDS011;2731;50.754;12.990;2022-09-14T15:45:33;2.45;;;2.20;;
5416;SDS011;2731;50.754;12.990;2022-09-14T15:48:01;2.85;;;2.20;;
5416;SDS011;2731;50.754;12.990;2022-09-14T15:50:27;2.78;;;2.28;;
5416;SDS011;2731;50.754;12.990;2022-09-14T15:52:56;2.30;;;2.10;;
5416;SDS011;2731;50.754;12.990;2022-09-14T15:55:23;1.73;;;1.60;;
5416;SDS011;2731;50.754;12.990;2022-09-14T15:57:50;1.58;;;1.48;;
5416;SDS011;2731;50.754;12.990;2022-09-14T16:00:16;1.73;;;1.55;;
5416;SDS011;2731;50.754;12.990;2022-09-14T16:02:43;2.00;;;1.60;;
5416;SDS011;2731;50.754;12.990;2022-09-14T16:05:14;2.45;;;1.65;;
5416;SDS011;2731;50.754;12.990;2022-09-14T16:07:43;2.08;;;1.65;;
5416;SDS011;2731;50.754;12.990;2022-09-14T16:10:13;2.50;;;1.60;;
5416;SDS011;2731;50.754;12.990;2022-09-14T16:12:39;1.73;;;1.63;;
5416;SDS011;2731;50.754;12.990;2022-09-14T16:15:05;2.67;;;1.90;;
5416;SDS011;2731;50.754;12.990;2022-09-14T16:17:32;2.13;;;1.92;;
5416;SDS011;2731;50.754;12.990;2022-09-14T16:19:59;2.40;;;2.20;;
5416;SDS011;2731;50.754;12.990;2022-09-14T16:22:26;2.45;;;2.20;;
5416;SDS011;2731;50.754;12.990;2022-09-14T16:24:51;2.42;;;2.22;;
5416;SDS011;2731;50.754;12.990;2022-09-14T16:27:22;2.25;;;2.05;;
5416;SDS011;2731;50.754;12.990;2022-09-14T16:29:49;2.97;;;2.58;;
5416;SDS011;2731;50.754;12.990;2022-09-14T16:32:17;2.55;;;2.22;;
5416;SDS011;2731;50.754;12.990;2022-09-14T16:34:43;2.25;;;2.08;;
5416;SDS011;2731;50.754;12.990;2022-09-14T16:37:10;4.25;;;2.00;;
5416;SDS011;2731;50.754;12.990;2022-09-14T16:39:35;2.60;;;2.25;;
5416;SDS011;2731;50.754;12.990;2022-09-14T16:42:01;2.13;;;1.92;;
5416;SDS011;2731;50.754;12.990;2022-09-14T16:44:28;1.98;;;1.45;;
5416;SDS011;2731;50.754;12.990;2022-09-14T16:46:54;2.35;;;1.83;;
5416;SDS011;2731;50.754;12.990;2022-09-14T16:49:21;1.38;;;1.00;;
5416;SDS011;2731;50.754;12.990;2022-09-14T16:51:49;1.77;;;1.60;;
5416;SDS011;2731;50.754;12.990;2022-09-14T16:54:15;2.17;;;1.50;;
5416;SDS011;2731;50.754;12.990;2022-09-14T16:56:42;1.98;;;1.77;;
5416;SDS011;2731;50.754;12.990;2022-09-14T16:59:08;1.80;;;1.63;;
5416;SDS011;2731;50.754;12.990;2022-09-14T17:01:35;2.22;;;1.83;;
5416;SDS011;2731;50.754;12.990;2022-09-14T17:04:04;2.38;;;2.08;;
5416;SDS011;2731;50.754;12.990;2022-09-14T17:06:36;1.73;;;1.60;;
5416;SDS011;2731;50.754;12.990;2022-09-14T17:09:04;2.08;;;1.80;;
5416;SDS011;2731;50.754;12.990;2022-09-14T17:11:37;4.47;;;2.30;;
5416;SDS011;2731;50.754;12.990;2022-09-14T17:14:07;3.25;;;2.85;;
5416;SDS011;2731;50.754;12.990;2022-09-14T17:16:36;3.92;;;2.80;;
5416;SDS011;2731;50.754;12.990;2022-09-14T17:19:02;4.13;;;3.10;;
5416;SDS011;2731;50.754;12.990;2022-09-14T17:21:31;3.33;;;2.83;;
5416;SDS011;2731;50.754;12.990;2022-09-14T17:23:59;2.40;;;2.17;;
5416;SDS011;2731;50.754;12.990;2022-09-14T17:26:26;2.65;;;1.95;;
5416;SDS011;2731;50.754;12.990;2022-09-14T17:28:53;1.88;;;1.63;;
5416;SDS011;2731;50.754;12.990;2022-09-14T17:31:21;1.40;;;1.30;;
5416;SDS011;2731;50.754;12.990;2022-09-14T17:33:51;1.63;;;1.50;;
5416;SDS011;2731;50.754;12.990;2022-09-14T17:36:19;1.63;;;1.17;;
5416;SDS011;2731;50.754;12.990;2022-09-14T17:38:47;1.25;;;1.15;;
5416;SDS011;2731;50.754;12.990;2022-09-14T17:41:14;2.08;;;1.58;;
5416;SDS011;2731;50.754;12.990;2022-09-14T17:43:41;1.60;;;1.40;;
5416;SDS011;2731;50.754;12.990;2022-09-14T17:46:11;3.20;;;1.70;;
5416;SDS011;2731;50.754;12.990;2022-09-14T17:48:40;2.00;;;1.67;;
5416;SDS011;2731;50.754;12.990;2022-09-14T17:51:09;1.50;;;1.40;;
5416;SDS011;2731;50.754;12.990;2022-09-14T17:53:39;2.08;;;1.80;;
5416;SDS011;2731;50.754;12.990;2022-09-14T17:56:09;2.25;;;2.05;;
5416;SDS011;2731;50.754;12.990;2022-09-14T17:58:41;2.80;;;2.25;;
5416;SDS011;2731;50.754;12.990;2022-09-14T18:01:11;2.85;;;2.47;;
5416;SDS011;2731;50.754;12.990;2022-09-14T18:03:55;2.13;;;1.92;;
5416;SDS011;2731;50.754;12.990;2022-09-14T18:06:34;2.30;;;2.08;;